Time;durP1;ratioP1;P1;durP2;ratioP2;P2;SDS_P1;SDS_P2;PMS_P1;PMS_P2;Temp;Humidity;BMP_temperature;BMP_pressure;BME280_temperature;BME280_humidity;BME280_pressure;Samples;Min_cycle;Max_cycle;Signal;HPM_P1;HPM_P2
2022/03/18 00:00:07;;;;;;;20.42;6.25;;;;;;;;;;5022650;28;20533;-73
2022/03/18 00:02:34;;;;;;;18.63;5.53;;;;;;;;;;5029316;28;20029;-73
2022/03/18 00:05:00;;;;;;;24.92;6.50;;;;;;;;;;5008107;28;20077;-73
2022/03/18 00:07:27;;;;;;;20.13;6.05;;;;;;;;;;5023994;28;20366;-73
2022/03/18 00:09:53;;;;;;;14.88;5.75;;;;;;;;;;5025693;28;20030;-73
2022/03/18 00:12:19;;;;;;;19.08;5.40;;;;;;;;;;5031159;28;20035;-73
2022/03/18 00:14:45;;;;;;;24.40;6.13;;;;;;;;;;5028513;28;20038;-72
2022/03/18 00:17:12;;;;;;;10.48;5.72;;;;;;;;;;5027900;28;20120;-73
2022/03/18 00:19:39;;;;;;;16.55;5.38;;;;;;;;;;5021083;28;20029;-73
2022/03/18 00:22:06;;;;;;;29.35;5.90;;;;;;;;;;5012122;28;20029;-73
2022/03/18 00:24:33;;;;;;;25.17;5.97;;;;;;;;;;5030950;28;20056;-73
2022/03/18 00:26:59;;;;;;;20.85;5.72;;;;;;;;;;5028333;28;20022;-73
2022/03/18 00:29:25;;;;;;;15.45;6.22;;;;;;;;;;5005457;28;20092;-73
2022/03/18 00:31:52;;;;;;;18.80;5.80;;;;;;;;;;5009561;28;20044;-72
2022/03/18 00:34:18;;;;;;;13.88;6.03;;;;;;;;;;5030334;28;20087;-73
2022/03/18 00:36:44;;;;;;;19.05;5.75;;;;;;;;;;5019053;28;20034;-73
2022/03/18 00:39:10;;;;;;;17.13;6.07;;;;;;;;;;5015497;28;20041;-73
2022/03/18 00:41:36;;;;;;;17.08;5.32;;;;;;;;;;5028813;28;20045;-73
2022/03/18 00:44:03;;;;;;;19.05;6.13;;;;;;;;;;5024331;28;20100;-73
2022/03/18 00:46:29;;;;;;;17.38;5.38;;;;;;;;;;5019738;28;20168;-73
2022/03/18 00:54:25;;;;;;;24.70;6.70;;;;;;;;;;5029535;28;20496;-73
2022/03/18 00:56:51;;;;;;;19.58;6.32;;;;;;;;;;5019311;28;20026;-73
2022/03/18 00:59:17;;;;;;;14.95;6.43;;;;;;;;;;5029200;28;20033;-73
2022/03/18 01:01:43;;;;;;;14.07;5.75;;;;;;;;;;5028701;28;20083;-73
2022/03/18 01:04:09;;;;;;;26.17;7.45;;;;;;;;;;5028319;28;20033;-72
2022/03/18 01:06:35;;;;;;;19.20;6.55;;;;;;;;;;5011952;28;20034;-73
2022/03/18 01:09:04;;;;;;;21.52;6.07;;;;;;;;;;5025820;28;20038;-73
2022/03/18 01:11:31;;;;;;;20.00;6.95;;;;;;;;;;5029385;28;20048;-73
2022/03/18 01:13:57;;;;;;;23.13;6.60;;;;;;;;;;5027420;28;20026;-73
2022/03/18 01:16:23;;;;;;;18.85;6.13;;;;;;;;;;5028758;28;20029;-72
2022/03/18 01:18:50;;;;;;;17.17;6.75;;;;;;;;;;5025918;28;20048;-73
2022/03/18 01:21:16;;;;;;;19.00;5.95;;;;;;;;;;5031803;28;20026;-73
2022/03/18 01:23:42;;;;;;;31.15;7.68;;;;;;;;;;5032950;28;20026;-73
2022/03/18 01:26:08;;;;;;;18.23;5.63;;;;;;;;;;5020282;28;20396;-73
2022/03/18 01:28:34;;;;;;;19.63;6.38;;;;;;;;;;5031047;28;20061;-73
2022/03/18 01:31:00;;;;;;;19.15;7.22;;;;;;;;;;5026472;28;20048;-73
2022/03/18 01:33:26;;;;;;;22.13;6.13;;;;;;;;;;5030532;28;20021;-73
2022/03/18 01:35:52;;;;;;;16.58;5.90;;;;;;;;;;5018099;28;20040;-73
2022/03/18 01:38:18;;;;;;;17.33;5.57;;;;;;;;;;5033217;28;20034;-73
2022/03/18 01:40:44;;;;;;;16.17;6.57;;;;;;;;;;5031732;28;20084;-73
2022/03/18 01:43:11;;;;;;;15.32;5.63;;;;;;;;;;5031712;28;20099;-73
2022/03/18 01:45:37;;;;;;;15.55;5.47;;;;;;;;;;5033605;28;20060;-73
2022/03/18 01:48:04;;;;;;;14.05;5.40;;;;;;;;;;5016145;28;20040;-73
2022/03/18 01:50:30;;;;;;;12.73;6.10;;;;;;;;;;5013031;28;20065;-73
2022/03/18 01:52:57;;;;;;;28.88;6.05;;;;;;;;;;5025854;28;20037;-74
2022/03/18 01:55:24;;;;;;;24.70;6.65;;;;;;;;;;5026756;28;20033;-73
2022/03/18 01:57:50;;;;;;;16.33;5.75;;;;;;;;;;5030542;28;20033;-73
2022/03/18 02:00:19;;;;;;;12.70;5.55;;;;;;;;;;5030122;28;20053;-72
2022/03/18 02:02:45;;;;;;;17.73;6.18;;;;;;;;;;5031640;28;20033;-72
2022/03/18 02:05:11;;;;;;;17.25;5.25;;;;;;;;;;5033597;28;20523;-73
2022/03/18 02:07:38;;;;;;;25.38;5.78;;;;;;;;;;5031697;28;20039;-73
2022/03/18 02:10:04;;;;;;;15.63;6.00;;;;;;;;;;5031657;28;20036;-73
2022/03/18 02:12:31;;;;;;;20.50;6.18;;;;;;;;;;5032173;28;20064;-73
2022/03/18 02:14:57;;;;;;;18.08;6.22;;;;;;;;;;5029239;28;20099;-72
2022/03/18 02:17:23;;;;;;;15.95;6.43;;;;;;;;;;5023896;28;20042;-73
2022/03/18 02:19:49;;;;;;;18.02;6.50;;;;;;;;;;5028177;28;20033;-73
2022/03/18 02:22:15;;;;;;;16.33;5.72;;;;;;;;;;5031549;28;20461;-73
2022/03/18 02:24:42;;;;;;;17.73;6.30;;;;;;;;;;5032757;28;20041;-73
2022/03/18 02:27:08;;;;;;;23.08;7.47;;;;;;;;;;5032589;28;20349;-73
2022/03/18 02:29:34;;;;;;;14.18;6.03;;;;;;;;;;5028902;28;20057;-73
2022/03/18 02:32:05;;;;;;;15.07;5.35;;;;;;;;;;5016904;28;20029;-73
2022/03/18 02:34:31;;;;;;;13.23;5.40;;;;;;;;;;5028465;28;20525;-73
2022/03/18 02:36:57;;;;;;;11.98;5.57;;;;;;;;;;5024478;28;20056;-73
2022/03/18 02:39:23;;;;;;;17.42;6.10;;;;;;;;;;5030510;28;20465;-72
2022/03/18 02:41:49;;;;;;;15.15;5.93;;;;;;;;;;5030104;28;20037;-71
2022/03/18 02:44:15;;;;;;;13.55;5.25;;;;;;;;;;5014195;28;20289;-73
2022/03/18 02:46:41;;;;;;;18.75;5.97;;;;;;;;;;5032575;28;20099;-73
2022/03/18 02:49:08;;;;;;;21.77;6.15;;;;;;;;;;5019283;28;20040;-73
2022/03/18 02:51:37;;;;;;;14.68;5.20;;;;;;;;;;5032004;28;20021;-73
2022/03/18 02:54:05;;;;;;;23.33;7.00;;;;;;;;;;5031672;28;20034;-73
2022/03/18 02:56:31;;;;;;;21.75;6.25;;;;;;;;;;5029521;28;20482;-73
2022/03/18 02:58:57;;;;;;;26.38;6.97;;;;;;;;;;5027660;28;20037;-72
2022/03/18 03:01:23;;;;;;;13.90;5.32;;;;;;;;;;5018206;28;20473;-73
2022/03/18 03:03:49;;;;;;;21.27;6.05;;;;;;;;;;5024025;28;20026;-73
2022/03/18 03:09:00;;;;;;;14.57;5.80;;;;;;;;;;5031830;28;20102;-73
2022/03/18 03:11:26;;;;;;;19.75;5.85;;;;;;;;;;5028066;28;20029;-72
2022/03/18 03:13:53;;;;;;;20.90;6.25;;;;;;;;;;5012743;28;21000;-73
2022/03/18 03:16:19;;;;;;;16.13;5.88;;;;;;;;;;5028305;28;20059;-73
2022/03/18 03:18:46;;;;;;;16.85;5.05;;;;;;;;;;5032005;28;20025;-73
2022/03/18 03:21:12;;;;;;;22.08;5.95;;;;;;;;;;5028515;28;20040;-72
2022/03/18 03:23:38;;;;;;;22.38;7.45;;;;;;;;;;5032242;28;20044;-73
2022/03/18 03:26:04;;;;;;;17.77;5.90;;;;;;;;;;5029118;28;20029;-73
2022/03/18 03:28:30;;;;;;;16.42;6.07;;;;;;;;;;5029095;28;20065;-73
2022/03/18 03:30:56;;;;;;;16.23;6.45;;;;;;;;;;5024977;28;20029;-72
2022/03/18 03:33:22;;;;;;;15.93;5.85;;;;;;;;;;5011449;28;20030;-73
2022/03/18 03:35:49;;;;;;;13.55;5.53;;;;;;;;;;5014423;28;20033;-73
2022/03/18 03:38:15;;;;;;;16.10;5.80;;;;;;;;;;5030333;28;20048;-73
2022/03/18 03:40:41;;;;;;;14.13;6.32;;;;;;;;;;5026921;28;20076;-73
2022/03/18 03:43:08;;;;;;;14.75;5.40;;;;;;;;;;5030110;28;20395;-73
2022/03/18 03:45:36;;;;;;;14.05;6.25;;;;;;;;;;5024864;28;20095;-73
2022/03/18 03:48:02;;;;;;;15.80;5.90;;;;;;;;;;5031304;28;20041;-73
2022/03/18 03:50:28;;;;;;;15.95;5.32;;;;;;;;;;5025070;28;20410;-73
2022/03/18 03:52:54;;;;;;;15.93;5.50;;;;;;;;;;5031695;28;20385;-73
2022/03/18 03:55:20;;;;;;;17.35;6.15;;;;;;;;;;5028424;28;20048;-73
2022/03/18 03:57:47;;;;;;;18.83;6.10;;;;;;;;;;5029728;28;20030;-73
2022/03/18 04:00:14;;;;;;;13.95;6.32;;;;;;;;;;5027845;28;20032;-73
2022/03/18 04:02:40;;;;;;;19.80;6.15;;;;;;;;;;5030743;28;20464;-73
2022/03/18 04:05:09;;;;;;;15.82;6.07;;;;;;;;;;5031245;28;20060;-73
2022/03/18 04:07:36;;;;;;;13.40;5.72;;;;;;;;;;5029776;28;20045;-73
2022/03/18 04:10:04;;;;;;;17.02;6.35;;;;;;;;;;5028134;28;20030;-73
2022/03/18 04:12:32;;;;;;;15.43;7.25;;;;;;;;;;5028337;28;20025;-73
2022/03/18 04:14:58;;;;;;;14.30;5.93;;;;;;;;;;5021755;28;20030;-73
2022/03/18 04:17:26;;;;;;;14.75;6.28;;;;;;;;;;5029994;28;20041;-73
2022/03/18 04:19:53;;;;;;;16.10;6.60;;;;;;;;;;5026675;28;20037;-74
2022/03/18 04:22:19;;;;;;;21.60;7.00;;;;;;;;;;5017085;28;20483;-73
2022/03/18 04:24:45;;;;;;;19.67;6.43;;;;;;;;;;5031445;28;20025;-73
2022/03/18 04:27:11;;;;;;;16.33;6.78;;;;;;;;;;5011917;28;20092;-73
2022/03/18 04:29:37;;;;;;;18.48;6.88;;;;;;;;;;5017911;28;20029;-73
2022/03/18 04:32:03;;;;;;;15.60;6.80;;;;;;;;;;5028059;28;20036;-73
2022/03/18 04:34:30;;;;;;;17.23;7.40;;;;;;;;;;5012964;28;20060;-73
2022/03/18 04:36:56;;;;;;;14.70;7.22;;;;;;;;;;5028904;28;20049;-73
2022/03/18 04:39:22;;;;;;;19.52;6.70;;;;;;;;;;5030777;28;20049;-73
2022/03/18 04:41:48;;;;;;;17.75;6.72;;;;;;;;;;5018012;28;20107;-73
2022/03/18 04:44:14;;;;;;;18.05;6.90;;;;;;;;;;5027278;28;20554;-72
2022/03/18 04:46:40;;;;;;;29.98;8.35;;;;;;;;;;5017633;28;20045;-72
2022/03/18 04:49:06;;;;;;;13.95;5.88;;;;;;;;;;5028803;28;20030;-72
2022/03/18 04:51:32;;;;;;;11.85;6.10;;;;;;;;;;5006140;28;20037;-72
2022/03/18 04:53:58;;;;;;;14.43;6.85;;;;;;;;;;5026149;28;20170;-72
2022/03/18 04:59:09;;;;;;;14.60;6.32;;;;;;;;;;5033018;28;20120;-72
2022/03/18 05:01:35;;;;;;;13.23;6.20;;;;;;;;;;5030253;28;20041;-73
2022/03/18 05:04:01;;;;;;;15.05;7.10;;;;;;;;;;5035042;28;20525;-73
2022/03/18 05:06:27;;;;;;;15.55;6.60;;;;;;;;;;5031177;28;20198;-73
2022/03/18 05:08:53;;;;;;;17.73;6.70;;;;;;;;;;5035006;28;20038;-73
2022/03/18 05:11:19;;;;;;;15.35;6.88;;;;;;;;;;5032006;28;20029;-73
2022/03/18 05:13:46;;;;;;;13.02;7.28;;;;;;;;;;5027995;28;20056;-73
2022/03/18 05:16:12;;;;;;;13.93;6.57;;;;;;;;;;5026778;28;20116;-72
2022/03/18 05:18:38;;;;;;;16.10;7.03;;;;;;;;;;5028616;28;20076;-71
2022/03/18 05:21:05;;;;;;;15.52;7.78;;;;;;;;;;5025758;28;20030;-72
2022/03/18 05:23:32;;;;;;;20.25;8.25;;;;;;;;;;5033492;28;20112;-73
2022/03/18 05:25:59;;;;;;;18.02;7.28;;;;;;;;;;5033886;28;20387;-72
2022/03/18 05:28:26;;;;;;;10.48;7.20;;;;;;;;;;5030826;28;20552;-73
2022/03/18 05:30:52;;;;;;;11.45;6.60;;;;;;;;;;5026315;28;20033;-73
2022/03/18 05:33:19;;;;;;;18.00;8.30;;;;;;;;;;5030164;28;20072;-71
2022/03/18 05:35:45;;;;;;;21.35;8.90;;;;;;;;;;5032544;28;20033;-70
2022/03/18 05:38:11;;;;;;;12.15;7.75;;;;;;;;;;5032301;28;20870;-72
2022/03/18 05:40:37;;;;;;;17.33;6.60;;;;;;;;;;5031021;28;20053;-70
2022/03/18 05:43:04;;;;;;;11.57;7.30;;;;;;;;;;5033040;28;20392;-73
2022/03/18 05:45:30;;;;;;;19.77;7.82;;;;;;;;;;5038196;28;20037;-73
2022/03/18 05:47:56;;;;;;;15.93;7.70;;;;;;;;;;5024335;28;20493;-72
2022/03/18 05:50:22;;;;;;;19.17;8.23;;;;;;;;;;5032826;28;20029;-73
2022/03/18 05:52:48;;;;;;;19.40;7.80;;;;;;;;;;5029419;28;20030;-73
2022/03/18 05:55:14;;;;;;;13.48;7.43;;;;;;;;;;5027446;28;20026;-73
2022/03/18 05:57:40;;;;;;;17.60;8.38;;;;;;;;;;5030888;28;20049;-73
2022/03/18 06:00:07;;;;;;;13.38;7.93;;;;;;;;;;5013377;28;20045;-73
2022/03/18 06:02:33;;;;;;;16.35;7.45;;;;;;;;;;5014622;28;20559;-73
2022/03/18 06:05:00;;;;;;;16.70;8.85;;;;;;;;;;5033664;28;20132;-74
2022/03/18 06:07:26;;;;;;;20.40;8.13;;;;;;;;;;5032302;28;20095;-74
2022/03/18 06:12:37;;;;;;;10.80;7.40;;;;;;;;;;5035008;28;20036;-77
2022/03/18 06:15:03;;;;;;;17.30;7.90;;;;;;;;;;5024770;28;20491;-79
2022/03/18 06:17:29;;;;;;;108.88;61.33;;;;;;;;;;5033223;28;20033;-73
2022/03/18 06:19:55;;;;;;;15.90;9.02;;;;;;;;;;5003266;28;20045;-70
2022/03/18 06:22:22;;;;;;;16.35;7.90;;;;;;;;;;5027892;28;20047;-72
2022/03/18 06:24:48;;;;;;;19.15;8.98;;;;;;;;;;5024268;28;20132;-72
2022/03/18 06:27:14;;;;;;;15.20;8.38;;;;;;;;;;5031384;28;20036;-72
2022/03/18 06:29:43;;;;;;;19.75;9.88;;;;;;;;;;5031691;28;20110;-72
2022/03/18 06:32:09;;;;;;;13.07;8.00;;;;;;;;;;5030708;28;20082;-72
2022/03/18 06:34:35;;;;;;;18.50;7.68;;;;;;;;;;5026150;28;20117;-72
2022/03/18 06:37:01;;;;;;;11.45;7.65;;;;;;;;;;5028362;28;20503;-72
2022/03/18 06:39:27;;;;;;;16.45;8.27;;;;;;;;;;5031694;28;20725;-73
2022/03/18 06:41:54;;;;;;;19.42;8.02;;;;;;;;;;5013360;28;20068;-73
2022/03/18 06:44:20;;;;;;;16.38;7.55;;;;;;;;;;5026696;28;20053;-72
2022/03/18 06:46:46;;;;;;;13.48;7.28;;;;;;;;;;5019008;28;20032;-73
2022/03/18 06:49:13;;;;;;;12.43;6.55;;;;;;;;;;5027683;28;20033;-73
2022/03/18 06:51:39;;;;;;;9.35;6.10;;;;;;;;;;5031854;28;20068;-73
2022/03/18 06:54:05;;;;;;;188.07;102.72;;;;;;;;;;5007218;28;20033;-71
2022/03/18 06:56:31;;;;;;;154.60;86.28;;;;;;;;;;5024786;28;20037;-71
2022/03/18 06:58:58;;;;;;;19.90;10.18;;;;;;;;;;5026170;28;20050;-73
2022/03/18 07:01:24;;;;;;;13.23;6.65;;;;;;;;;;5024481;28;20030;-73
2022/03/18 07:03:50;;;;;;;13.75;6.53;;;;;;;;;;5021452;28;20480;-73
2022/03/18 07:06:16;;;;;;;15.73;7.07;;;;;;;;;;5027406;28;20101;-74
2022/03/18 07:08:43;;;;;;;15.90;7.47;;;;;;;;;;5032440;28;20037;-71
2022/03/18 07:11:13;;;;;;;17.38;6.82;;;;;;;;;;5030440;28;20436;-72
2022/03/18 07:13:40;;;;;;;10.48;6.47;;;;;;;;;;5021871;28;20032;-74
2022/03/18 07:18:51;;;;;;;20.58;7.50;;;;;;;;;;5028906;28;20095;-72
2022/03/18 07:21:17;;;;;;;13.25;6.50;;;;;;;;;;5029603;28;20034;-72
2022/03/18 07:23:43;;;;;;;16.58;6.32;;;;;;;;;;5005261;28;20049;-73
2022/03/18 07:26:09;;;;;;;18.23;6.88;;;;;;;;;;5006175;28;20033;-73
2022/03/18 07:28:35;;;;;;;53.97;28.85;;;;;;;;;;5026482;28;20037;-73
2022/03/18 07:31:01;;;;;;;57.08;31.65;;;;;;;;;;5029444;28;20087;-73
2022/03/18 07:33:28;;;;;;;20.15;7.75;;;;;;;;;;5028725;28;20041;-72
2022/03/18 07:35:54;;;;;;;15.02;6.85;;;;;;;;;;5026439;28;20026;-72
2022/03/18 07:38:20;;;;;;;15.15;7.13;;;;;;;;;;5030278;28;20033;-73
2022/03/18 07:40:46;;;;;;;14.90;7.15;;;;;;;;;;5026677;28;20081;-74
2022/03/18 07:43:13;;;;;;;23.67;12.00;;;;;;;;;;5023540;28;20420;-74
2022/03/18 07:45:39;;;;;;;13.82;6.25;;;;;;;;;;5012255;28;20052;-76
2022/03/18 07:48:06;;;;;;;17.70;6.50;;;;;;;;;;5023280;28;20107;-73
2022/03/18 07:50:33;;;;;;;21.50;7.15;;;;;;;;;;5012774;28;20116;-73
2022/03/18 07:53:00;;;;;;;19.60;6.60;;;;;;;;;;5024051;28;20033;-74
2022/03/18 07:55:27;;;;;;;17.02;6.70;;;;;;;;;;5016791;28;20044;-74
2022/03/18 07:57:54;;;;;;;16.88;6.65;;;;;;;;;;5025041;28;20100;-74
2022/03/18 08:00:20;;;;;;;19.27;6.45;;;;;;;;;;5025663;28;20108;-75
2022/03/18 08:02:47;;;;;;;21.33;6.97;;;;;;;;;;5024795;28;20470;-73
2022/03/18 08:05:13;;;;;;;59.10;29.35;;;;;;;;;;5020358;28;20034;-74
2022/03/18 08:07:40;;;;;;;56.92;26.17;;;;;;;;;;5022729;28;20040;-74
2022/03/18 08:10:08;;;;;;;24.85;12.95;;;;;;;;;;5029436;28;20036;-74
2022/03/18 08:12:34;;;;;;;17.95;6.10;;;;;;;;;;5023243;28;20465;-74
2022/03/18 08:15:01;;;;;;;26.35;6.10;;;;;;;;;;5025753;28;20033;-74
2022/03/18 08:17:27;;;;;;;22.80;5.97;;;;;;;;;;5027128;28;20112;-74
2022/03/18 08:19:53;;;;;;;18.00;5.88;;;;;;;;;;5027311;28;20074;-74
2022/03/18 08:22:21;;;;;;;15.98;5.63;;;;;;;;;;5021195;28;20461;-74
2022/03/18 08:24:47;;;;;;;18.75;5.88;;;;;;;;;;5026309;28;20472;-73
2022/03/18 08:27:13;;;;;;;17.48;5.85;;;;;;;;;;5030920;28;20021;-74
2022/03/18 08:29:39;;;;;;;15.73;5.43;;;;;;;;;;5026783;28;20056;-73
2022/03/18 08:32:12;;;;;;;15.15;5.72;;;;;;;;;;5032047;28;20095;-73
2022/03/18 08:34:39;;;;;;;12.98;5.93;;;;;;;;;;5010446;28;20036;-73
2022/03/18 08:37:05;;;;;;;23.45;5.72;;;;;;;;;;5026840;28;20052;-73
2022/03/18 08:39:35;;;;;;;16.23;5.32;;;;;;;;;;5029460;28;20048;-74
2022/03/18 08:42:01;;;;;;;20.38;6.85;;;;;;;;;;5045532;28;20080;-74
2022/03/18 08:44:27;;;;;;;23.02;5.43;;;;;;;;;;5029766;28;20034;-74
2022/03/18 08:46:53;;;;;;;16.83;5.78;;;;;;;;;;5043174;28;20036;-74
2022/03/18 08:49:19;;;;;;;23.98;5.50;;;;;;;;;;5037751;28;20034;-74
2022/03/18 08:51:45;;;;;;;21.02;5.47;;;;;;;;;;5034688;28;20026;-74
2022/03/18 08:54:11;;;;;;;25.60;6.18;;;;;;;;;;5030823;28;22021;-75
2022/03/18 08:56:37;;;;;;;17.05;5.75;;;;;;;;;;5031335;28;20037;-74
2022/03/18 08:59:06;;;;;;;39.97;20.02;;;;;;;;;;5008778;28;20045;-74
2022/03/18 09:01:33;;;;;;;20.55;7.90;;;;;;;;;;5026514;28;20053;-74
2022/03/18 09:03:59;;;;;;;23.25;6.85;;;;;;;;;;5031161;28;20033;-74
2022/03/18 09:06:25;;;;;;;20.95;5.20;;;;;;;;;;5028919;28;20029;-73
2022/03/18 09:08:51;;;;;;;18.35;5.60;;;;;;;;;;5025802;28;20052;-74
2022/03/18 09:11:17;;;;;;;14.38;5.03;;;;;;;;;;5033359;28;20041;-75
2022/03/18 09:13:44;;;;;;;20.48;4.65;;;;;;;;;;5027320;28;20143;-73
2022/03/18 09:16:11;;;;;;;19.60;4.60;;;;;;;;;;5033301;28;20120;-73
2022/03/18 09:18:37;;;;;;;17.45;4.60;;;;;;;;;;5033409;28;20033;-73
2022/03/18 09:21:03;;;;;;;16.48;4.82;;;;;;;;;;5033392;28;20057;-73
2022/03/18 09:23:29;;;;;;;21.95;4.78;;;;;;;;;;5033857;28;20029;-73
2022/03/18 09:25:57;;;;;;;15.45;4.57;;;;;;;;;;5034108;28;20034;-73
2022/03/18 09:28:23;;;;;;;18.50;5.28;;;;;;;;;;5030690;28;20119;-73
2022/03/18 09:30:49;;;;;;;16.98;4.55;;;;;;;;;;5033543;28;20026;-73
2022/03/18 09:33:16;;;;;;;13.80;4.35;;;;;;;;;;5029956;28;20566;-73
2022/03/18 09:35:43;;;;;;;18.58;4.30;;;;;;;;;;5022418;28;20088;-73
2022/03/18 09:38:09;;;;;;;15.48;4.75;;;;;;;;;;5013736;28;20028;-73
2022/03/18 09:40:37;;;;;;;19.00;4.93;;;;;;;;;;5023707;28;20058;-72
2022/03/18 09:43:04;;;;;;;18.27;5.05;;;;;;;;;;5024646;28;20192;-73
2022/03/18 09:45:32;;;;;;;17.75;5.28;;;;;;;;;;5019458;28;20045;-73
2022/03/18 09:48:02;;;;;;;15.88;4.50;;;;;;;;;;5025609;28;20044;-74
2022/03/18 09:50:28;;;;;;;16.17;4.22;;;;;;;;;;5029962;28;20037;-74
2022/03/18 09:52:54;;;;;;;18.75;3.83;;;;;;;;;;5031244;28;20044;-74
2022/03/18 09:55:21;;;;;;;13.80;4.00;;;;;;;;;;5024736;28;20083;-74
2022/03/18 09:57:47;;;;;;;18.80;4.25;;;;;;;;;;5030246;28;20041;-74
2022/03/18 10:00:13;;;;;;;14.68;4.50;;;;;;;;;;5030122;28;20392;-74
2022/03/18 10:02:39;;;;;;;12.63;4.38;;;;;;;;;;5032088;28;20038;-74
2022/03/18 10:05:13;;;;;;;16.20;4.63;;;;;;;;;;5024472;28;20073;-74
2022/03/18 10:07:40;;;;;;;17.48;5.00;;;;;;;;;;5031616;28;20056;-74
2022/03/18 10:10:08;;;;;;;15.20;4.90;;;;;;;;;;5028449;28;20037;-74
2022/03/18 10:12:35;;;;;;;19.63;4.53;;;;;;;;;;5008677;28;20092;-72
2022/03/18 10:15:04;;;;;;;15.90;5.35;;;;;;;;;;5025548;28;20176;-76
2022/03/18 10:17:50;;;;;;;18.10;4.65;;;;;;;;;;5026829;28;20021;-77
2022/03/18 10:20:28;;;;;;;16.75;4.25;;;;;;;;;;5030956;28;20107;-75
2022/03/18 10:22:55;;;;;;;15.15;4.50;;;;;;;;;;5017907;28;20053;-72
2022/03/18 10:25:37;;;;;;;13.98;4.07;;;;;;;;;;5025692;28;20041;-73
2022/03/18 10:28:03;;;;;;;18.98;4.57;;;;;;;;;;5029343;28;20021;-73
2022/03/18 10:30:29;;;;;;;14.30;4.15;;;;;;;;;;5032480;28;20045;-73
2022/03/18 10:32:56;;;;;;;19.08;4.45;;;;;;;;;;5030066;28;20029;-73
2022/03/18 10:38:29;;;;;;;15.73;4.50;;;;;;;;;;5021617;28;20368;-72
2022/03/18 10:40:55;;;;;;;17.50;4.93;;;;;;;;;;5030045;28;20057;-73
2022/03/18 10:43:21;;;;;;;14.13;4.50;;;;;;;;;;5029774;28;20065;-73
2022/03/18 10:46:06;;;;;;;15.40;3.95;;;;;;;;;;5017796;28;20441;-74
2022/03/18 10:48:33;;;;;;;19.20;3.70;;;;;;;;;;5025947;28;20045;-73
2022/03/18 10:51:06;;;;;;;19.58;4.47;;;;;;;;;;5026223;28;20036;-73
2022/03/18 10:53:33;;;;;;;16.98;4.32;;;;;;;;;;5019619;28;20630;-73
2022/03/18 10:56:03;;;;;;;12.95;3.55;;;;;;;;;;5031051;28;20040;-73
2022/03/18 10:58:32;;;;;;;19.95;4.90;;;;;;;;;;5024214;28;20065;-72
2022/03/18 11:01:02;;;;;;;16.90;4.45;;;;;;;;;;5028239;28;20029;-72
2022/03/18 11:03:30;;;;;;;18.38;4.38;;;;;;;;;;5024810;28;20404;-73
2022/03/18 11:06:02;;;;;;;13.18;4.05;;;;;;;;;;5024044;28;20025;-72
2022/03/18 11:08:35;;;;;;;15.95;4.60;;;;;;;;;;5025465;28;20041;-74
2022/03/18 11:11:07;;;;;;;17.75;5.38;;;;;;;;;;5027854;28;20040;-74
2022/03/18 11:13:36;;;;;;;24.48;4.63;;;;;;;;;;5011586;28;20051;-72
2022/03/18 11:16:02;;;;;;;15.77;4.50;;;;;;;;;;5021553;28;20512;-72
2022/03/18 11:18:29;;;;;;;17.13;4.35;;;;;;;;;;5026222;28;20038;-72
2022/03/18 11:20:56;;;;;;;12.65;4.25;;;;;;;;;;5025759;28;20064;-73
2022/03/18 11:23:23;;;;;;;15.77;4.22;;;;;;;;;;5032072;28;20481;-73
2022/03/18 11:25:50;;;;;;;19.73;4.38;;;;;;;;;;5010296;28;20427;-73
2022/03/18 11:28:17;;;;;;;14.57;4.43;;;;;;;;;;5030429;28;20041;-73
2022/03/18 11:30:44;;;;;;;18.20;5.35;;;;;;;;;;5019359;28;20030;-73
2022/03/18 11:33:13;;;;;;;15.25;4.68;;;;;;;;;;5001044;28;20116;-73
2022/03/18 11:35:57;;;;;;;17.95;4.75;;;;;;;;;;5024104;28;20557;-72
2022/03/18 11:38:28;;;;;;;21.65;5.07;;;;;;;;;;5033865;28;20045;-72
2022/03/18 11:40:58;;;;;;;18.17;5.10;;;;;;;;;;5020426;28;20049;-73
2022/03/18 11:43:42;;;;;;;19.02;3.90;;;;;;;;;;5011802;28;20037;-72
2022/03/18 11:48:41;;;;;;;;;;;;;;;;;;5028379;28;20045;-72
2022/03/18 11:51:25;;;;;;;20.00;5.15;;;;;;;;;;5023763;28;20421;-71
2022/03/18 11:53:53;;;;;;;18.15;4.53;;;;;;;;;;5025095;28;20075;-72
2022/03/18 11:56:24;;;;;;;16.40;3.97;;;;;;;;;;5030040;28;20037;-72
2022/03/18 11:58:50;;;;;;;15.63;4.47;;;;;;;;;;5022325;28;20053;-71
2022/03/18 12:01:38;;;;;;;20.08;6.95;;;;;;;;;;5024388;28;20355;-73
2022/03/18 12:04:06;;;;;;;11.88;3.67;;;;;;;;;;5022672;28;20473;-72
2022/03/18 12:06:32;;;;;;;14.30;3.67;;;;;;;;;;5018500;28;20108;-72
2022/03/18 12:08:59;;;;;;;15.43;4.40;;;;;;;;;;5023579;28;20480;-72
2022/03/18 12:11:26;;;;;;;14.13;3.45;;;;;;;;;;5012287;28;20037;-72
2022/03/18 12:13:52;;;;;;;20.38;4.07;;;;;;;;;;5003778;28;20060;-72
2022/03/18 12:16:19;;;;;;;16.02;3.42;;;;;;;;;;5020371;28;20416;-72
2022/03/18 12:18:46;;;;;;;16.92;3.63;;;;;;;;;;5023843;28;20437;-71
2022/03/18 12:21:12;;;;;;;12.70;3.53;;;;;;;;;;5010848;28;20132;-72
2022/03/18 12:23:38;;;;;;;13.25;2.83;;;;;;;;;;5019466;28;20037;-72
2022/03/18 12:26:08;;;;;;;12.65;3.13;;;;;;;;;;5023534;28;20029;-72
2022/03/18 12:28:48;;;;;;;15.55;2.83;;;;;;;;;;5023364;28;21838;-73
2022/03/18 12:31:16;;;;;;;16.25;3.88;;;;;;;;;;5022015;28;20029;-72
2022/03/18 12:33:43;;;;;;;14.98;3.60;;;;;;;;;;5007934;28;20033;-72
2022/03/18 12:36:09;;;;;;;16.95;2.53;;;;;;;;;;5023118;28;20111;-72
2022/03/18 12:38:35;;;;;;;11.93;2.47;;;;;;;;;;5023342;28;20047;-72
2022/03/18 12:41:01;;;;;;;15.02;3.03;;;;;;;;;;5021412;28;20057;-72
2022/03/18 12:43:30;;;;;;;20.25;3.80;;;;;;;;;;5023668;28;20029;-73
2022/03/18 12:45:57;;;;;;;13.27;3.28;;;;;;;;;;5023811;28;20025;-73
2022/03/18 12:48:23;;;;;;;14.32;3.40;;;;;;;;;;5019286;28;20052;-73
2022/03/18 12:50:54;;;;;;;13.52;2.75;;;;;;;;;;5024551;28;20026;-73
2022/03/18 12:53:23;;;;;;;18.58;3.50;;;;;;;;;;5021513;28;20025;-73
2022/03/18 12:55:51;;;;;;;19.35;3.30;;;;;;;;;;5005725;28;20037;-73
2022/03/18 12:58:17;;;;;;;16.25;3.45;;;;;;;;;;5018586;28;20097;-73
2022/03/18 13:00:45;;;;;;;11.38;2.80;;;;;;;;;;5019127;28;20029;-73
2022/03/18 13:03:15;;;;;;;12.73;2.72;;;;;;;;;;5023391;28;20074;-73
2022/03/18 13:05:41;;;;;;;17.27;3.20;;;;;;;;;;5020927;28;20037;-73
2022/03/18 13:08:08;;;;;;;13.45;3.67;;;;;;;;;;5006071;28;20095;-73
2022/03/18 13:10:35;;;;;;;20.52;3.33;;;;;;;;;;5021652;28;20042;-73
2022/03/18 13:13:11;;;;;;;12.23;3.25;;;;;;;;;;5019062;28;20067;-73
2022/03/18 13:15:45;;;;;;;17.75;3.90;;;;;;;;;;5023496;28;20908;-73
2022/03/18 13:18:12;;;;;;;12.43;2.53;;;;;;;;;;5026766;28;20583;-73
2022/03/18 13:20:42;;;;;;;11.57;2.40;;;;;;;;;;5023457;28;20025;-73
2022/03/18 13:23:10;;;;;;;15.80;3.58;;;;;;;;;;5007195;28;20037;-73
2022/03/18 13:25:36;;;;;;;15.75;2.92;;;;;;;;;;5023559;28;20052;-73
2022/03/18 13:28:03;;;;;;;11.50;2.58;;;;;;;;;;5009590;28;20033;-73
2022/03/18 13:33:14;;;;;;;16.80;3.72;;;;;;;;;;5021374;28;20061;-72
2022/03/18 13:35:45;;;;;;;13.48;2.67;;;;;;;;;;5007368;28;20404;-72
2022/03/18 13:38:16;;;;;;;14.25;2.95;;;;;;;;;;5023506;28;20129;-72
2022/03/18 13:40:54;;;;;;;14.80;3.50;;;;;;;;;;5021529;28;20423;-73
2022/03/18 13:43:28;;;;;;;12.13;3.20;;;;;;;;;;5022560;28;20079;-73
2022/03/18 13:46:09;;;;;;;13.25;3.10;;;;;;;;;;5022045;28;20120;-72
2022/03/18 13:48:35;;;;;;;16.95;3.47;;;;;;;;;;5025693;28;20040;-73
2022/03/18 13:51:01;;;;;;;11.68;2.50;;;;;;;;;;5022553;28;20108;-72
2022/03/18 13:53:27;;;;;;;21.23;2.80;;;;;;;;;;5025951;28;20107;-72
2022/03/18 13:55:54;;;;;;;16.35;3.97;;;;;;;;;;5023371;28;20041;-72
2022/03/18 13:58:33;;;;;;;14.90;3.53;;;;;;;;;;5019055;28;20114;-71
2022/03/18 14:01:08;;;;;;;16.77;3.00;;;;;;;;;;5024742;28;22661;-72
2022/03/18 14:03:34;;;;;;;15.05;3.88;;;;;;;;;;5020933;28;20029;-72
2022/03/18 14:06:01;;;;;;;17.52;3.47;;;;;;;;;;5022992;28;20110;-73
2022/03/18 14:08:31;;;;;;;14.57;3.47;;;;;;;;;;5026216;28;20030;-73
2022/03/18 14:10:59;;;;;;;19.23;3.90;;;;;;;;;;5021320;28;20108;-72
2022/03/18 14:13:32;;;;;;;17.73;3.88;;;;;;;;;;5026187;28;20041;-71
2022/03/18 14:15:58;;;;;;;16.55;2.88;;;;;;;;;;5023424;28;20017;-73
2022/03/18 14:18:24;;;;;;;20.48;3.20;;;;;;;;;;5022565;28;20038;-72
2022/03/18 14:20:53;;;;;;;19.30;3.97;;;;;;;;;;5006441;28;20111;-72
2022/03/18 14:23:19;;;;;;;29.85;10.38;;;;;;;;;;5018936;28;20029;-73
2022/03/18 14:25:45;;;;;;;22.65;6.90;;;;;;;;;;5008025;28;20026;-72
2022/03/18 14:28:18;;;;;;;14.23;3.58;;;;;;;;;;5028214;28;20060;-72
2022/03/18 14:30:44;;;;;;;23.50;3.78;;;;;;;;;;5028428;28;20083;-76
2022/03/18 14:33:10;;;;;;;21.25;3.60;;;;;;;;;;5015626;28;20030;-76
2022/03/18 14:35:36;;;;;;;20.98;4.20;;;;;;;;;;5008239;28;20033;-76
2022/03/18 14:38:03;;;;;;;15.65;3.42;;;;;;;;;;5023805;28;20032;-76
2022/03/18 14:40:29;;;;;;;15.50;3.67;;;;;;;;;;5027959;28;20064;-76
2022/03/18 14:42:56;;;;;;;13.93;2.88;;;;;;;;;;5038499;28;20053;-78
2022/03/18 14:45:22;;;;;;;18.23;3.08;;;;;;;;;;5012510;28;20037;-78
2022/03/18 14:47:48;;;;;;;18.13;2.80;;;;;;;;;;5031984;28;20487;-78
2022/03/18 14:50:14;;;;;;;20.55;3.72;;;;;;;;;;5029113;28;20120;-76
2022/03/18 14:52:41;;;;;;;13.40;2.72;;;;;;;;;;5028472;28;20041;-76